首页
METAR-TAF:

METAR-TAF

机场 :

石油平台

Heimdal, 挪威

纬度: 59-34-12N, 经度: 2-13-48E, 海拔: 10米

当前天气观测

该预报发布于31分钟前的22:20 UTC
风速2节,风向西转西北
温度 5°C
湿度 70%
气压 1032 hPa
能见度10公里或以上

METAR: ENHM 022220Z AUTO 29002KT 9999NDV BKN029/// OVC033/// 05/00 Q1032 W07/S3

时间: 23:51 (22:51 UTC)

预报

该预报发布于8小时和51分钟前的14:00 UTC
预报有效从02日的 15点(UTC)到 02日的 18点(UTC)
风速12节,风向南转西南
能见度10公里或以上
少量云层高于1000英尺
多云层高于3000英尺
短暂存在
从 02日的 15点(UTC)到 02日的 18点(UTC)
多云层高于1200英尺

TAF: ENHM 021400Z 0215/0218 21012KT 9999 FEW010 BKN030 TEMPO 0215/0218 BKN012

超过4000个机场的气象观测和天气预报(METAR&TAF报告)。

可查询的气象台以黄色和红色小点在地图上表示。

将鼠标移到小点上方,可查看气象台名称。

然后点击查看天气观测和预报。

如需切换地图:点击带黑十字的绿色按钮放大地图;点击带横线的绿色按钮缩小地图;或者点击绿色箭头查看邻近地区的地图。


METAR-TAF: